createdAt,value
2022-10-23T00:00:35.710Z,12.22
2022-10-23T00:03:38.842Z,12.19
2022-10-23T00:06:43.164Z,12.26
2022-10-23T00:09:46.009Z,12.22
2022-10-23T00:12:49.436Z,12.21
2022-10-23T00:18:59.770Z,12.29
2022-10-23T00:22:02.673Z,12.25
2022-10-23T00:25:06.528Z,12.29
2022-10-23T00:28:09.359Z,12.34
2022-10-23T00:31:13.173Z,12.23
2022-10-23T00:34:16.135Z,12.40
2022-10-23T00:37:18.804Z,12.44
2022-10-23T00:40:21.623Z,12.48
2022-10-23T00:43:27.870Z,12.58
2022-10-23T00:46:31.264Z,12.59
2022-10-23T00:49:34.608Z,12.62
2022-10-23T00:52:42.453Z,12.62
2022-10-23T00:55:47.347Z,12.64
2022-10-23T00:58:50.231Z,12.66
2022-10-23T01:01:53.234Z,12.68
2022-10-23T01:04:56.275Z,12.68
2022-10-23T01:08:18.031Z,12.67
2022-10-23T01:11:30.730Z,12.58
2022-10-23T01:14:47.952Z,12.64
2022-10-23T01:18:13.001Z,12.64
2022-10-23T01:22:01.903Z,12.63
2022-10-23T01:25:23.873Z,12.64
2022-10-23T01:28:32.601Z,12.63
2022-10-23T01:32:04.253Z,12.64
2022-10-23T01:35:24.570Z,12.56
2022-10-23T01:38:34.050Z,12.63
2022-10-23T01:41:42.666Z,12.64
2022-10-23T01:45:09.824Z,12.64
2022-10-23T01:48:15.763Z,12.66
2022-10-23T01:51:22.027Z,12.67
2022-10-23T01:54:31.509Z,12.68
2022-10-23T01:57:36.189Z,12.65
2022-10-23T02:00:40.727Z,12.69
2022-10-23T02:03:45.075Z,12.71
2022-10-23T02:06:47.867Z,12.71
2022-10-23T02:09:51.254Z,12.69
2022-10-23T02:13:20.458Z,12.70
2022-10-23T02:16:46.431Z,12.71
2022-10-23T02:20:02.529Z,12.72
2022-10-23T02:23:09.994Z,12.73
2022-10-23T02:26:42.503Z,12.73
2022-10-23T02:30:02.670Z,12.76
2022-10-23T02:33:07.823Z,12.74
2022-10-23T02:36:11.566Z,12.72
2022-10-23T02:39:14.247Z,12.69
2022-10-23T02:42:28.825Z,12.65
2022-10-23T02:45:51.679Z,12.66
2022-10-23T02:49:21.726Z,12.69
2022-10-23T02:52:31.996Z,12.60
2022-10-23T02:55:49.478Z,12.69
2022-10-23T02:59:04.707Z,12.68
2022-10-23T03:05:42.149Z,12.65
2022-10-23T03:08:59.161Z,12.66
2022-10-23T03:12:01.878Z,12.66
2022-10-23T03:15:08.969Z,12.69
2022-10-23T03:18:11.574Z,12.65
2022-10-23T03:21:15.077Z,12.63
2022-10-23T03:24:17.642Z,12.61
2022-10-23T03:27:20.620Z,12.61
2022-10-23T03:30:23.364Z,12.61
2022-10-23T03:33:26.725Z,12.61
2022-10-23T03:36:29.328Z,12.59
2022-10-23T03:39:32.331Z,12.54
2022-10-23T03:42:34.988Z,12.64
2022-10-23T03:45:38.608Z,12.64
2022-10-23T03:48:42.121Z,12.63
2022-10-23T03:51:51.871Z,12.62
2022-10-23T03:54:56.224Z,12.64
2022-10-23T03:57:59.113Z,12.64
2022-10-23T04:01:01.883Z,12.64
2022-10-23T04:04:04.823Z,12.65
2022-10-23T04:07:07.468Z,12.62
2022-10-23T04:10:10.697Z,12.66
2022-10-23T04:13:13.235Z,12.67
2022-10-23T04:16:16.238Z,12.71
2022-10-23T04:19:20.004Z,12.66
2022-10-23T04:22:25.939Z,12.70
2022-10-23T04:25:30.211Z,12.69
2022-10-23T04:28:33.471Z,12.67
2022-10-23T04:31:36.055Z,12.67
2022-10-23T04:34:38.920Z,12.66
2022-10-23T04:37:42.103Z,12.64
2022-10-23T04:40:45.263Z,12.56
2022-10-23T04:43:48.370Z,12.62
2022-10-23T04:46:51.325Z,12.62
2022-10-23T04:49:53.961Z,12.63
2022-10-23T04:52:58.008Z,12.60
2022-10-23T04:56:01.326Z,12.57
2022-10-23T05:02:13.795Z,12.51
2022-10-23T05:05:17.708Z,12.50
2022-10-23T05:08:23.219Z,12.51
2022-10-23T05:11:27.432Z,12.47
2022-10-23T05:14:30.183Z,12.48
2022-10-23T05:17:37.023Z,12.44
2022-10-23T05:20:40.371Z,12.46
2022-10-23T05:23:46.154Z,12.44
2022-10-23T05:26:51.686Z,12.48
2022-10-23T05:29:55.061Z,12.47
2022-10-23T05:32:59.405Z,12.52
2022-10-23T05:36:03.174Z,12.52
2022-10-23T05:39:06.418Z,12.55
2022-10-23T05:42:09.442Z,12.56
2022-10-23T05:45:13.160Z,12.53
2022-10-23T05:48:30.157Z,12.55
2022-10-23T05:51:38.981Z,12.52
2022-10-23T05:54:42.517Z,12.38
2022-10-23T05:57:47.375Z,12.48
2022-10-23T06:00:50.680Z,12.50
2022-10-23T06:03:55.089Z,12.54
2022-10-23T06:06:59.053Z,12.59
2022-10-23T06:10:02.067Z,12.63
2022-10-23T06:13:05.167Z,12.73
2022-10-23T06:16:20.102Z,12.75
2022-10-23T06:19:22.807Z,12.72
2022-10-23T06:22:27.902Z,12.68
2022-10-23T06:25:31.163Z,12.65
2022-10-23T06:28:34.510Z,12.82
2022-10-23T06:31:37.135Z,12.84
2022-10-23T06:34:40.162Z,12.88
2022-10-23T06:37:43.372Z,12.95
2022-10-23T06:40:55.451Z,13.00
2022-10-23T06:43:58.391Z,13.03
2022-10-23T06:47:02.247Z,13.07
2022-10-23T06:50:15.343Z,13.07
2022-10-23T06:53:19.403Z,13.15
2022-10-23T06:56:22.944Z,13.15
2022-10-23T06:59:25.983Z,13.25
2022-10-23T07:02:28.817Z,13.24
2022-10-23T07:05:33.847Z,13.31
2022-10-23T07:08:38.084Z,13.38
2022-10-23T07:11:42.328Z,13.38
2022-10-23T07:14:44.908Z,13.47
2022-10-23T07:17:48.017Z,13.43
2022-10-23T07:20:58.220Z,13.45
2022-10-23T07:24:01.903Z,13.49
2022-10-23T07:27:05.080Z,13.57
2022-10-23T07:30:08.695Z,13.66
2022-10-23T07:33:13.847Z,13.76
2022-10-23T07:36:17.997Z,13.84
2022-10-23T07:39:22.475Z,13.97
2022-10-23T07:42:26.327Z,14.09
2022-10-23T07:45:29.020Z,14.18
2022-10-23T07:48:32.374Z,14.25
2022-10-23T07:51:35.075Z,14.31
2022-10-23T07:54:39.057Z,14.41
2022-10-23T07:57:43.006Z,14.47
2022-10-23T08:00:52.125Z,14.58
2022-10-23T08:03:55.286Z,14.55
2022-10-23T08:06:58.654Z,14.65
2022-10-23T08:10:01.664Z,14.76
2022-10-23T08:13:04.881Z,14.82
2022-10-23T08:16:10.711Z,14.87
2022-10-23T08:19:17.075Z,14.98
2022-10-23T08:22:20.086Z,15.13
2022-10-23T08:25:24.887Z,15.22
2022-10-23T08:28:29.456Z,15.32
2022-10-23T08:31:32.875Z,15.44
2022-10-23T08:34:37.928Z,15.53
2022-10-23T08:37:40.719Z,15.57
2022-10-23T08:40:46.290Z,15.64
2022-10-23T08:44:20.141Z,15.76
2022-10-23T08:47:41.240Z,15.83
2022-10-23T08:50:51.089Z,15.85
2022-10-23T08:54:06.460Z,15.95
2022-10-23T08:57:15.637Z,16.06
2022-10-23T09:00:18.788Z,16.21
2022-10-23T09:03:21.935Z,16.17
2022-10-23T09:06:41.259Z,16.26
2022-10-23T09:10:22.839Z,16.30
2022-10-23T09:13:43.857Z,16.22
2022-10-23T09:17:18.733Z,16.30
2022-10-23T09:20:25.967Z,16.32
2022-10-23T09:23:28.667Z,16.32
2022-10-23T09:26:31.508Z,16.37
2022-10-23T09:29:38.449Z,16.32
2022-10-23T09:32:43.563Z,16.25
2022-10-23T09:35:59.399Z,16.29
2022-10-23T09:39:02.283Z,16.32
2022-10-23T09:42:26.023Z,16.27
2022-10-23T09:45:34.884Z,16.22
2022-10-23T09:48:42.344Z,16.06
2022-10-23T09:52:02.767Z,16.21
2022-10-23T09:55:26.052Z,16.16
2022-10-23T09:58:35.247Z,16.15
2022-10-23T10:01:48.054Z,16.23
2022-10-23T10:04:53.243Z,16.18
2022-10-23T10:08:07.344Z,16.21
2022-10-23T10:11:15.955Z,16.30
2022-10-23T10:14:39.826Z,16.32
2022-10-23T10:17:54.593Z,16.22
2022-10-23T10:21:21.240Z,16.11
2022-10-23T10:24:34.556Z,16.30
2022-10-23T10:27:58.765Z,16.38
2022-10-23T10:31:23.602Z,16.50
2022-10-23T10:34:47.472Z,16.51
2022-10-23T10:38:15.045Z,16.60
2022-10-23T10:41:36.690Z,16.74
2022-10-23T10:45:17.454Z,16.85
2022-10-23T10:48:31.367Z,17.00
2022-10-23T10:51:40.052Z,17.19
2022-10-23T10:54:58.962Z,17.18
2022-10-23T10:58:18.315Z,17.12
2022-10-23T11:01:41.013Z,17.18
2022-10-23T11:04:51.240Z,17.24
2022-10-23T11:08:22.422Z,17.16
2022-10-23T11:11:45.646Z,17.20
2022-10-23T11:14:50.009Z,17.17
2022-10-23T11:17:59.500Z,17.24
2022-10-23T11:21:43.506Z,17.23
2022-10-23T11:25:13.692Z,17.31
2022-10-23T11:28:40.921Z,17.41
2022-10-23T11:32:21.555Z,17.54
2022-10-23T11:35:54.788Z,17.51
2022-10-23T11:39:15.791Z,17.42
2022-10-23T11:42:32.034Z,17.36
2022-10-23T11:45:37.694Z,17.30
2022-10-23T11:48:43.684Z,17.25
2022-10-23T11:51:46.563Z,17.21
2022-10-23T11:54:49.187Z,17.34
2022-10-23T11:58:07.351Z,17.31
2022-10-23T12:01:28.425Z,17.29
2022-10-23T12:04:52.766Z,17.26
2022-10-23T12:08:00.860Z,17.35
2022-10-23T12:11:03.956Z,17.33
2022-10-23T12:14:29.010Z,17.30
2022-10-23T12:17:36.940Z,17.30
2022-10-23T12:20:50.122Z,17.20
2022-10-23T12:23:59.707Z,17.18
2022-10-23T12:27:08.997Z,17.07
2022-10-23T12:30:24.734Z,17.10
2022-10-23T12:33:53.479Z,16.92
2022-10-23T12:37:08.558Z,16.80
2022-10-23T12:40:12.139Z,16.76
2022-10-23T12:43:26.242Z,16.71
2022-10-23T12:46:35.581Z,16.79
2022-10-23T12:49:48.961Z,16.87
2022-10-23T12:52:54.485Z,16.87
2022-10-23T12:59:16.377Z,16.76
2022-10-23T13:02:30.801Z,16.75
2022-10-23T13:05:33.613Z,16.74
2022-10-23T13:08:43.215Z,16.65
2022-10-23T13:11:47.860Z,16.54
2022-10-23T13:15:06.583Z,16.44
2022-10-23T13:18:11.359Z,16.39
2022-10-23T13:21:21.227Z,16.36
2022-10-23T13:24:26.628Z,16.37
2022-10-23T13:27:34.497Z,16.30
2022-10-23T13:30:43.489Z,16.23
2022-10-23T13:33:52.630Z,16.22
2022-10-23T13:36:58.681Z,16.21
2022-10-23T13:40:10.309Z,16.17
2022-10-23T13:43:16.482Z,16.14
2022-10-23T13:46:27.181Z,16.14
2022-10-23T13:49:29.778Z,16.12
2022-10-23T13:52:32.701Z,16.08
2022-10-23T13:55:35.250Z,16.08
2022-10-23T13:58:38.692Z,16.04
2022-10-23T14:01:42.817Z,16.00
2022-10-23T14:04:47.255Z,15.98
2022-10-23T14:07:49.795Z,15.96
2022-10-23T14:10:52.679Z,15.94
2022-10-23T14:13:55.484Z,15.92
2022-10-23T14:16:58.538Z,15.90
2022-10-23T14:20:03.066Z,15.91
2022-10-23T14:23:08.271Z,15.90
2022-10-23T14:26:14.464Z,15.90
2022-10-23T14:29:22.824Z,15.90
2022-10-23T14:32:26.606Z,15.89
2022-10-23T14:35:29.591Z,15.86
2022-10-23T14:38:32.151Z,15.84
2022-10-23T14:41:35.141Z,15.84
2022-10-23T14:47:47.054Z,15.80
2022-10-23T14:50:50.088Z,15.79
2022-10-23T14:53:59.528Z,15.77
2022-10-23T14:57:03.308Z,15.74
2022-10-23T15:00:07.356Z,15.74
2022-10-23T15:03:09.978Z,15.71
2022-10-23T15:06:17.479Z,15.73
2022-10-23T15:09:21.228Z,15.66
2022-10-23T15:12:24.599Z,15.58
2022-10-23T15:15:27.148Z,15.49
2022-10-23T15:18:30.126Z,15.42
2022-10-23T15:21:32.853Z,15.35
2022-10-23T15:24:36.144Z,15.28
2022-10-23T15:27:38.734Z,15.22
2022-10-23T15:30:44.090Z,15.19
2022-10-23T15:33:46.874Z,15.16
2022-10-23T15:36:51.143Z,15.11
2022-10-23T15:39:56.165Z,14.98
2022-10-23T15:43:01.532Z,15.03
2022-10-23T15:46:04.092Z,15.01
2022-10-23T15:49:08.591Z,14.99
2022-10-23T15:52:11.500Z,14.95
2022-10-23T15:55:14.972Z,14.89
2022-10-23T15:58:17.770Z,14.86
2022-10-23T16:01:20.951Z,14.80
2022-10-23T16:04:24.271Z,14.76
2022-10-23T16:07:27.040Z,14.76
2022-10-23T16:10:30.047Z,14.74
2022-10-23T16:13:32.879Z,14.73
2022-10-23T16:16:35.862Z,14.73
2022-10-23T16:19:38.619Z,14.73
2022-10-23T16:22:44.850Z,14.72
2022-10-23T16:25:47.830Z,14.69
2022-10-23T16:28:58.018Z,14.68
2022-10-23T16:32:00.882Z,14.63
2022-10-23T16:35:04.196Z,14.60
2022-10-23T16:38:12.904Z,14.55
2022-10-23T16:41:16.103Z,14.56
2022-10-23T16:44:19.064Z,14.53
2022-10-23T16:47:22.840Z,14.51
2022-10-23T16:50:25.772Z,14.51
2022-10-23T16:53:29.043Z,14.48
2022-10-23T16:56:32.113Z,14.52
2022-10-23T16:59:35.306Z,14.52
2022-10-23T17:02:38.329Z,14.43
2022-10-23T17:05:41.400Z,14.42
2022-10-23T17:08:44.789Z,14.44
2022-10-23T17:11:48.148Z,14.46
2022-10-23T17:14:51.154Z,14.45
2022-10-23T17:17:54.307Z,14.45
2022-10-23T17:20:57.638Z,14.43
2022-10-23T17:27:08.532Z,14.38
2022-10-23T17:30:13.056Z,14.34
2022-10-23T17:33:18.146Z,14.32
2022-10-23T17:36:21.888Z,14.30
2022-10-23T17:39:29.288Z,14.30
2022-10-23T17:42:32.379Z,14.32
2022-10-23T17:45:35.733Z,14.26
2022-10-23T17:48:43.459Z,14.23
2022-10-23T17:51:46.401Z,14.18
2022-10-23T17:54:52.450Z,14.18
2022-10-23T17:57:56.213Z,14.14
2022-10-23T18:01:08.862Z,14.16
2022-10-23T18:04:12.559Z,14.12
2022-10-23T18:07:16.022Z,14.12
2022-10-23T18:10:19.754Z,14.11
2022-10-23T18:13:22.595Z,14.10
2022-10-23T18:16:26.091Z,14.09
2022-10-23T18:19:29.766Z,14.10
2022-10-23T18:22:33.280Z,13.99
2022-10-23T18:25:35.923Z,14.07
2022-10-23T18:28:39.395Z,14.08
2022-10-23T18:31:42.324Z,14.04
2022-10-23T18:34:45.539Z,13.97
2022-10-23T18:37:48.591Z,13.94
2022-10-23T18:40:55.231Z,13.89
2022-10-23T18:43:58.191Z,13.83
2022-10-23T18:47:01.476Z,13.74
2022-10-23T18:50:04.951Z,13.71
2022-10-23T18:53:08.151Z,13.59
2022-10-23T18:56:11.067Z,13.62
2022-10-23T18:59:18.292Z,13.58
2022-10-23T19:02:21.778Z,13.52
2022-10-23T19:05:26.153Z,13.47
2022-10-23T19:08:29.207Z,13.45
2022-10-23T19:11:32.394Z,13.34
2022-10-23T19:14:35.315Z,13.27
2022-10-23T19:17:38.659Z,13.33
2022-10-23T19:20:42.969Z,13.30
2022-10-23T19:23:46.535Z,13.24
2022-10-23T19:26:51.058Z,13.20
2022-10-23T19:29:55.899Z,13.17
2022-10-23T19:32:59.760Z,13.15
2022-10-23T19:36:05.299Z,13.11
2022-10-23T19:39:08.370Z,13.07
2022-10-23T19:42:12.237Z,13.05
2022-10-23T19:45:15.744Z,13.00
2022-10-23T19:48:19.010Z,12.95
2022-10-23T19:51:21.869Z,12.93
2022-10-23T19:54:25.423Z,12.89
2022-10-23T19:57:30.450Z,12.89
2022-10-23T20:00:33.637Z,12.89
2022-10-23T20:03:37.322Z,12.90
2022-10-23T20:06:40.231Z,12.91
2022-10-23T20:09:43.172Z,12.88
2022-10-23T20:12:56.374Z,12.93
2022-10-23T20:16:00.879Z,12.95
2022-10-23T20:19:07.164Z,12.98
2022-10-23T20:22:10.727Z,12.95
2022-10-23T20:25:13.842Z,12.94
2022-10-23T20:28:17.151Z,12.88
2022-10-23T20:31:21.801Z,12.86
2022-10-23T20:34:24.935Z,12.84
2022-10-23T20:37:27.695Z,12.81
2022-10-23T20:40:30.738Z,12.78
2022-10-23T20:43:34.010Z,12.78
2022-10-23T20:46:39.419Z,12.74
2022-10-23T20:49:41.966Z,12.74
2022-10-23T20:52:45.625Z,12.72
2022-10-23T20:55:48.235Z,12.68
2022-10-23T20:58:51.386Z,12.72
2022-10-23T21:01:55.314Z,12.73
2022-10-23T21:04:59.004Z,12.78
2022-10-23T21:08:01.555Z,12.81
2022-10-23T21:11:04.996Z,12.83
2022-10-23T21:14:08.409Z,12.80
2022-10-23T21:17:16.538Z,12.83
2022-10-23T21:20:19.249Z,12.72
2022-10-23T21:23:22.182Z,12.77
2022-10-23T21:26:26.057Z,12.76
2022-10-23T21:29:28.946Z,12.74
2022-10-23T21:32:31.536Z,12.73
2022-10-23T21:35:34.654Z,12.72
2022-10-23T21:38:37.346Z,12.69
2022-10-23T21:41:40.255Z,12.68
2022-10-23T21:44:42.936Z,12.71
2022-10-23T21:47:46.296Z,12.74
2022-10-23T21:53:57.606Z,12.80
2022-10-23T21:57:00.203Z,12.80
2022-10-23T22:00:05.601Z,12.86
2022-10-23T22:03:15.082Z,12.88
2022-10-23T22:06:24.499Z,12.89
2022-10-23T22:09:27.055Z,12.92
2022-10-23T22:12:29.907Z,12.95
2022-10-23T22:15:32.464Z,12.95
2022-10-23T22:18:36.434Z,12.98
2022-10-23T22:21:39.682Z,13.00
2022-10-23T22:24:42.505Z,13.01
2022-10-23T22:27:45.328Z,13.05
2022-10-23T22:30:48.612Z,13.08
2022-10-23T22:33:52.367Z,13.11
2022-10-23T22:36:55.555Z,13.15
2022-10-23T22:39:58.159Z,13.18
2022-10-23T22:43:01.658Z,13.18
2022-10-23T22:46:08.619Z,13.20
2022-10-23T22:49:11.711Z,13.21
2022-10-23T22:52:14.288Z,13.22
2022-10-23T22:55:17.211Z,13.24
2022-10-23T22:58:19.912Z,13.18
2022-10-23T23:01:25.314Z,13.23
2022-10-23T23:04:43.303Z,13.25
2022-10-23T23:07:46.401Z,13.25
2022-10-23T23:10:53.934Z,13.26
2022-10-23T23:13:56.833Z,13.25
2022-10-23T23:16:59.515Z,13.28
2022-10-23T23:20:02.465Z,13.22
2022-10-23T23:23:05.097Z,13.30
2022-10-23T23:26:08.463Z,13.32
2022-10-23T23:29:11.254Z,13.33
2022-10-23T23:32:14.164Z,13.30
2022-10-23T23:35:17.481Z,13.34
2022-10-23T23:38:20.365Z,13.32
2022-10-23T23:41:23.866Z,13.32
2022-10-23T23:44:26.940Z,13.33
2022-10-23T23:47:29.719Z,13.33
2022-10-23T23:50:32.663Z,13.34
2022-10-23T23:53:35.258Z,13.29
2022-10-23T23:56:38.416Z,13.28
2022-10-23T23:59:41.775Z,13.25
